ダブリン の空港の天気 - METARとTAF

ダブリン空港 ( EIDW / DUB ) - アイルランド ダブリン
飛行場実況気象(Metar)
観測時間04/25 17:00 IST (04/25 16:00 UTC)
風向・風速北 9m/s 瞬間風速14m/s
視程10km以上
天気現象周辺でしゅう雨
少しの雲 雲底高度 550m
気温9℃
湿度43%
気圧1019hPa
METAREIDW 251600Z 35018G28KT 9999 VCSH FEW018CB 09/M03 Q1019 NOSIG
過去の天気等 Google飛行場航空写真 Wunderground天気予報

過去48時間のMETAR

飛行場予報(TAF)
発表時間: 4/25 12:00 IST (4/25 11:00 UTC)
予報対象時間: 25日13時 IST ~ 26日13時 IST
風向・風速北北西 8m/s
視程10km以上
少しの雲 雲底高度 550m
全天の4割程度の雲 雲底高度 910m
25日13時 IST ~ 25日19時 IST に一時的に
風向・風速北 9m/s 瞬間風速 15m/s
25日13時 IST ~ 25日19時 IST に 確率 30% で一時的に
天気現象弱いしゅう雨あられ
全天の4割程度の雲 雲底高度 370m
全天の4割程度の積乱雲 雲底高度 550m
25日20時 IST ~ 25日22時 IST に徐々に
風向・風速北北西 5m/s
TAF EIDW 251100Z 2512/2612 34015KT 9999 FEW018 SCT030
TEMPO 2512/2518 35018G30KT
PROB30 TEMPO 2512/2518 -SHRAGS SCT012 SCT018CB
BECMG 2519/2521 34010KT